createdAt,value
2018-06-28T00:00:00.029Z,0
2018-06-28T00:00:59.630Z,0
2018-06-28T00:02:00.243Z,0
2018-06-28T00:02:59.700Z,0
2018-06-28T00:03:59.654Z,0
2018-06-28T00:05:00.132Z,0
2018-06-28T00:05:59.260Z,0
2018-06-28T00:06:59.756Z,0
2018-06-28T00:08:00.230Z,0
2018-06-28T00:08:59.669Z,0
2018-06-28T00:09:59.753Z,0
2018-06-28T00:10:59.492Z,0
2018-06-28T00:11:59.774Z,0
2018-06-28T00:13:00.119Z,0
2018-06-28T00:14:00.349Z,0
2018-06-28T00:15:00.347Z,0
2018-06-28T00:16:00.363Z,0
2018-06-28T00:16:59.857Z,0
2018-06-28T00:17:59.608Z,0
2018-06-28T00:18:59.905Z,0
2018-06-28T00:20:00.455Z,0
2018-06-28T00:21:00.206Z,0
2018-06-28T00:22:00.242Z,0
2018-06-28T00:22:59.989Z,0
2018-06-28T00:24:00.541Z,0
2018-06-28T00:25:00.570Z,0
2018-06-28T00:26:00.590Z,0
2018-06-28T00:27:00.631Z,0
2018-06-28T00:28:00.374Z,0
2018-06-28T00:29:00.124Z,0
2018-06-28T00:30:00.689Z,0
2018-06-28T00:31:00.456Z,0
2018-06-28T00:32:00.201Z,0
2018-06-28T00:33:00.766Z,0
2018-06-28T00:33:59.982Z,0
2018-06-28T00:35:00.804Z,0
2018-06-28T00:36:00.823Z,0
2018-06-28T00:37:00.583Z,0
2018-06-28T00:38:00.600Z,0
2018-06-28T00:39:00.613Z,0
2018-06-28T00:40:00.908Z,0
2018-06-28T00:41:00.942Z,0
2018-06-28T00:42:00.695Z,0
2018-06-28T00:43:00.707Z,0
2018-06-28T00:44:01.004Z,0
2018-06-28T00:45:01.026Z,0
2018-06-28T00:46:01.049Z,0
2018-06-28T00:47:00.815Z,0
2018-06-28T00:48:00.816Z,0
2018-06-28T00:49:00.843Z,0
2018-06-28T00:50:00.867Z,0
2018-06-28T00:51:00.885Z,0
2018-06-28T00:52:01.184Z,0
2018-06-28T00:53:01.207Z,0
2018-06-28T00:54:01.224Z,0
2018-06-28T00:55:00.978Z,0
2018-06-28T00:56:00.999Z,0
2018-06-28T00:57:01.016Z,0
2018-06-28T00:58:01.328Z,0
2018-06-28T00:59:01.064Z,0
2018-06-28T01:00:01.363Z,0
2018-06-28T01:01:01.111Z,0
2018-06-28T01:02:01.134Z,0
2018-06-28T01:03:01.155Z,0
2018-06-28T01:04:01.180Z,0
2018-06-28T01:05:00.933Z,0
2018-06-28T01:06:01.487Z,0
2018-06-28T01:07:00.972Z,0
2018-06-28T01:08:01.535Z,0
2018-06-28T01:09:00.757Z,0
2018-06-28T01:10:01.585Z,0
2018-06-28T01:11:01.329Z,0
2018-06-28T01:12:01.363Z,0
2018-06-28T01:13:01.649Z,0
2018-06-28T01:14:01.401Z,0
2018-06-28T01:15:01.691Z,0
2018-06-28T01:16:01.721Z,0
2018-06-28T01:17:01.737Z,0
2018-06-28T01:18:01.494Z,0
2018-06-28T01:19:01.513Z,0
2018-06-28T01:20:01.536Z,0
2018-06-28T01:21:01.833Z,0
2018-06-28T01:22:01.850Z,0
2018-06-28T01:23:01.877Z,0
2018-06-28T01:24:01.623Z,0
2018-06-28T01:25:01.922Z,0
2018-06-28T01:26:01.666Z,0
2018-06-28T01:27:01.963Z,0
2018-06-28T01:28:01.995Z,0
2018-06-28T01:29:01.732Z,0
2018-06-28T01:30:02.019Z,0
2018-06-28T01:31:02.044Z,0
2018-06-28T01:32:01.532Z,0
2018-06-28T01:33:02.088Z,0
2018-06-28T01:34:01.900Z,0
2018-06-28T01:35:02.138Z,0
2018-06-28T01:36:01.895Z,0
2018-06-28T01:37:02.187Z,0
2018-06-28T01:38:02.201Z,0
2018-06-28T01:39:02.230Z,0
2018-06-28T01:40:02.093Z,0
2018-06-28T01:41:02.260Z,0
2018-06-28T01:42:02.290Z,0
2018-06-28T01:43:01.783Z,0
2018-06-28T01:44:02.337Z,0
2018-06-28T01:45:02.356Z,0
2018-06-28T01:46:02.118Z,0
2018-06-28T01:47:02.711Z,0
2018-06-28T01:48:02.432Z,0
2018-06-28T01:49:02.177Z,0
2018-06-28T01:50:02.495Z,0
2018-06-28T01:51:02.223Z,0
2018-06-28T01:52:02.236Z,0
2018-06-28T01:53:02.890Z,0
2018-06-28T01:54:02.562Z,0
2018-06-28T01:55:02.574Z,0
2018-06-28T01:56:02.600Z,0
2018-06-28T01:57:02.353Z,0
2018-06-28T01:58:02.643Z,0
2018-06-28T01:59:02.397Z,0
2018-06-28T02:00:02.434Z,0
2018-06-28T02:01:02.455Z,0
2018-06-28T02:02:02.194Z,0
2018-06-28T02:03:02.753Z,0
2018-06-28T02:04:02.511Z,0
2018-06-28T02:05:02.523Z,0
2018-06-28T02:06:02.814Z,0
2018-06-28T02:07:02.575Z,0
2018-06-28T02:08:02.609Z,0
2018-06-28T02:09:02.345Z,0
2018-06-28T02:10:02.394Z,0
2018-06-28T02:11:02.931Z,0
2018-06-28T02:12:02.956Z,0
2018-06-28T02:13:02.967Z,0
2018-06-28T02:14:02.726Z,0
2018-06-28T02:15:02.766Z,0
2018-06-28T02:16:02.044Z,0
2018-06-28T02:17:02.527Z,0
2018-06-28T02:18:03.078Z,0
2018-06-28T02:19:02.837Z,0
2018-06-28T02:20:03.128Z,0
2018-06-28T02:21:02.877Z,0
2018-06-28T02:22:02.895Z,0
2018-06-28T02:23:02.655Z,0
2018-06-28T02:24:03.215Z,0
2018-06-28T02:25:02.700Z,0
2018-06-28T02:26:03.251Z,0
2018-06-28T02:27:03.274Z,0
2018-06-28T02:28:03.022Z,0
2018-06-28T02:29:03.326Z,0
2018-06-28T02:30:03.358Z,0
2018-06-28T02:31:03.109Z,0
2018-06-28T02:32:03.398Z,0
2018-06-28T02:33:02.868Z,0
2018-06-28T02:34:03.282Z,0
2018-06-28T02:35:03.455Z,0
2018-06-28T02:36:03.225Z,0
2018-06-28T02:37:02.963Z,0
2018-06-28T02:38:03.008Z,0
2018-06-28T02:39:03.625Z,0
2018-06-28T02:40:03.018Z,0
2018-06-28T02:41:03.319Z,0
2018-06-28T02:42:03.343Z,0
2018-06-28T02:43:03.620Z,0
2018-06-28T02:44:02.850Z,0
2018-06-28T02:45:03.399Z,0
2018-06-28T02:46:03.235Z,0
2018-06-28T02:47:03.441Z,0
2018-06-28T02:48:03.725Z,0
2018-06-28T02:49:03.761Z,0
2018-06-28T02:50:03.546Z,0
2018-06-28T02:51:03.810Z,0
2018-06-28T02:52:03.818Z,0
2018-06-28T02:53:03.299Z,0
2018-06-28T02:54:03.856Z,0
2018-06-28T02:55:03.883Z,0
2018-06-28T02:56:03.914Z,0
2018-06-28T02:57:03.656Z,0
2018-06-28T02:58:03.704Z,0
2018-06-28T02:59:03.966Z,0
2018-06-28T03:00:04.054Z,0
2018-06-28T03:01:04.036Z,0
2018-06-28T03:02:03.767Z,0
2018-06-28T03:03:03.255Z,0
2018-06-28T03:04:03.816Z,0
2018-06-28T03:05:04.441Z,0
2018-06-28T03:06:04.702Z,0
2018-06-28T03:07:05.101Z,0
2018-06-28T03:08:04.888Z,0
2018-06-28T03:09:03.935Z,0
2018-06-28T03:10:03.935Z,0
2018-06-28T03:11:03.963Z,0
2018-06-28T03:12:04.256Z,0
2018-06-28T03:13:03.736Z,0
2018-06-28T03:14:04.024Z,0
2018-06-28T03:15:03.777Z,0
2018-06-28T03:16:05.139Z,0
2018-06-28T03:17:03.819Z,0
2018-06-28T03:18:05.119Z,0
2018-06-28T03:19:04.570Z,0
2018-06-28T03:20:04.910Z,0
2018-06-28T03:21:03.908Z,0
2018-06-28T03:22:04.484Z,0
2018-06-28T03:23:04.222Z,0
2018-06-28T03:24:04.075Z,0
2018-06-28T03:25:04.529Z,0
2018-06-28T03:26:04.279Z,0
2018-06-28T03:27:04.303Z,0
2018-06-28T03:28:04.334Z,0
2018-06-28T03:29:04.344Z,0
2018-06-28T03:30:04.180Z,0
2018-06-28T03:31:05.294Z,0
2018-06-28T03:32:04.443Z,0
2018-06-28T03:33:04.692Z,0
2018-06-28T03:34:04.713Z,0
2018-06-28T03:35:04.477Z,0
2018-06-28T03:36:04.497Z,0
2018-06-28T03:37:04.520Z,0
2018-06-28T03:38:05.469Z,0
2018-06-28T03:39:04.886Z,0
2018-06-28T03:40:04.326Z,0
2018-06-28T03:41:04.600Z,0
2018-06-28T03:42:04.890Z,0
2018-06-28T03:43:04.911Z,0
2018-06-28T03:44:04.676Z,0
2018-06-28T03:45:04.709Z,0
2018-06-28T03:46:05.359Z,0
2018-06-28T03:47:04.994Z,0
2018-06-28T03:48:04.750Z,0
2018-06-28T03:49:05.047Z,0
2018-06-28T03:50:04.790Z,0
2018-06-28T03:51:04.824Z,0
2018-06-28T03:52:04.837Z,0
2018-06-28T03:53:05.121Z,0
2018-06-28T03:54:04.877Z,0
2018-06-28T03:55:04.644Z,0
2018-06-28T03:56:04.649Z,0
2018-06-28T03:57:05.265Z,0
2018-06-28T03:58:04.699Z,0
2018-06-28T03:59:05.277Z,0
2018-06-28T04:00:05.007Z,0
2018-06-28T04:01:05.042Z,0
2018-06-28T04:02:05.335Z,0
2018-06-28T04:03:05.100Z,0
2018-06-28T04:04:05.113Z,0
2018-06-28T04:05:04.845Z,0
2018-06-28T04:06:05.396Z,0
2018-06-28T04:07:05.168Z,0
2018-06-28T04:08:05.450Z,0
2018-06-28T04:09:05.190Z,0
2018-06-28T04:10:05.240Z,0
2018-06-28T04:11:04.705Z,0
2018-06-28T04:12:05.306Z,0
2018-06-28T04:13:05.558Z,0
2018-06-28T04:14:05.582Z,5
2018-06-28T04:15:05.057Z,5
2018-06-28T04:16:05.621Z,5
2018-06-28T04:17:05.643Z,5
2018-06-28T04:18:05.138Z,5
2018-06-28T04:19:05.457Z,5
2018-06-28T04:20:04.943Z,5
2018-06-28T04:21:05.456Z,5
2018-06-28T04:22:05.740Z,5
2018-06-28T04:23:05.225Z,5
2018-06-28T04:24:05.258Z,5
2018-06-28T04:25:05.542Z,5
2018-06-28T04:26:05.057Z,5
2018-06-28T04:27:05.574Z,5
2018-06-28T04:28:05.354Z,5
2018-06-28T04:29:05.359Z,5
2018-06-28T04:30:05.950Z,5
2018-06-28T04:31:05.992Z,5
2018-06-28T04:32:05.974Z,5
2018-06-28T04:33:05.978Z,5
2018-06-28T04:34:05.493Z,5
2018-06-28T04:35:05.481Z,5
2018-06-28T04:36:05.527Z,5
2018-06-28T04:37:05.526Z,5
2018-06-28T04:38:05.820Z,5
2018-06-28T04:39:06.103Z,5
2018-06-28T04:40:05.656Z,5
2018-06-28T04:41:05.850Z,5
2018-06-28T04:42:05.902Z,5
2018-06-28T04:43:05.660Z,10
2018-06-28T04:44:05.940Z,10
2018-06-28T04:45:06.244Z,10
2018-06-28T04:46:06.257Z,10
2018-06-28T04:47:06.016Z,10
2018-06-28T04:48:06.290Z,10
2018-06-28T04:49:06.314Z,10
2018-06-28T04:50:06.480Z,10
2018-06-28T04:51:05.835Z,15
2018-06-28T04:52:05.845Z,15
2018-06-28T04:53:06.128Z,15
2018-06-28T04:54:05.908Z,15
2018-06-28T04:55:06.234Z,15
2018-06-28T04:56:06.221Z,15
2018-06-28T04:57:06.231Z,15
2018-06-28T04:58:05.970Z,15
2018-06-28T04:59:06.001Z,10
2018-06-28T05:00:06.547Z,10
2018-06-28T05:01:06.568Z,10
2018-06-28T05:02:06.657Z,10
2018-06-28T05:03:06.080Z,10
2018-06-28T05:04:06.373Z,10
2018-06-28T05:05:05.857Z,10
2018-06-28T05:06:06.424Z,10
2018-06-28T05:07:06.729Z,10
2018-06-28T05:08:05.918Z,10
2018-06-28T05:09:06.472Z,10
2018-06-28T05:10:06.778Z,10
2018-06-28T05:11:06.782Z,5
2018-06-28T05:12:06.541Z,5
2018-06-28T05:13:06.284Z,5
2018-06-28T05:14:06.634Z,5
2018-06-28T05:15:06.608Z,5
2018-06-28T05:16:06.081Z,5
2018-06-28T05:17:06.913Z,5
2018-06-28T05:18:06.394Z,5
2018-06-28T05:19:06.678Z,5
2018-06-28T05:20:06.449Z,10
2018-06-28T05:21:06.783Z,10
2018-06-28T05:22:06.746Z,5
2018-06-28T05:23:06.784Z,5
2018-06-28T05:24:07.057Z,5
2018-06-28T05:25:07.272Z,5
2018-06-28T05:26:07.100Z,5
2018-06-28T05:27:06.873Z,5
2018-06-28T05:28:06.618Z,5
2018-06-28T05:29:07.319Z,5
2018-06-28T05:30:06.978Z,5
2018-06-28T05:31:07.205Z,5
2018-06-28T05:32:07.238Z,5
2018-06-28T05:33:06.735Z,5
2018-06-28T05:34:07.281Z,5
2018-06-28T05:35:07.279Z,5
2018-06-28T05:36:07.140Z,5
2018-06-28T05:37:06.802Z,5
2018-06-28T05:38:07.104Z,5
2018-06-28T05:39:07.380Z,5
2018-06-28T05:40:07.151Z,5
2018-06-28T05:41:07.153Z,5
2018-06-28T05:42:07.446Z,5
2018-06-28T05:43:07.009Z,5
2018-06-28T05:44:07.495Z,5
2018-06-28T05:45:07.241Z,5
2018-06-28T05:46:07.526Z,5
2018-06-28T05:47:07.120Z,5
2018-06-28T05:48:07.570Z,5
2018-06-28T05:49:07.331Z,5
2018-06-28T05:50:07.078Z,5
2018-06-28T05:51:07.375Z,5
2018-06-28T05:52:07.147Z,5
2018-06-28T05:53:07.407Z,5
2018-06-28T05:54:07.686Z,5
2018-06-28T05:55:07.636Z,5
2018-06-28T05:56:07.479Z,5
2018-06-28T05:57:06.958Z,5
2018-06-28T05:58:07.268Z,5
2018-06-28T05:59:07.000Z,5
2018-06-28T06:00:07.587Z,5
2018-06-28T06:01:07.581Z,5
2018-06-28T06:02:07.682Z,5
2018-06-28T06:03:07.360Z,5
2018-06-28T06:04:07.373Z,10
2018-06-28T06:05:07.409Z,10
2018-06-28T06:06:07.716Z,10
2018-06-28T06:07:07.712Z,10
2018-06-28T06:08:07.736Z,10
2018-06-28T06:09:07.752Z,10
2018-06-28T06:10:07.792Z,10
2018-06-28T06:11:07.793Z,10
2018-06-28T06:12:08.374Z,10
2018-06-28T06:13:08.154Z,10
2018-06-28T06:14:07.340Z,10
2018-06-28T06:15:07.975Z,15
2018-06-28T06:16:07.931Z,15
2018-06-28T06:17:08.197Z,15
2018-06-28T06:18:07.956Z,15
2018-06-28T06:19:08.249Z,15
2018-06-28T06:20:07.745Z,15
2018-06-28T06:21:08.012Z,15
2018-06-28T06:22:07.776Z,15
2018-06-28T06:23:08.327Z,20
2018-06-28T06:24:08.105Z,20
2018-06-28T06:25:08.103Z,15
2018-06-28T06:26:07.872Z,15
2018-06-28T06:27:08.163Z,15
2018-06-28T06:28:08.491Z,15
2018-06-28T06:29:08.207Z,15
2018-06-28T06:30:08.480Z,15
2018-06-28T06:31:08.229Z,15
2018-06-28T06:32:08.324Z,15
2018-06-28T06:33:08.275Z,15
2018-06-28T06:34:08.311Z,15
2018-06-28T06:35:08.648Z,15
2018-06-28T06:36:08.451Z,15
2018-06-28T06:37:08.694Z,15
2018-06-28T06:38:08.653Z,15
2018-06-28T06:39:08.409Z,15
2018-06-28T06:40:08.425Z,15
2018-06-28T06:41:07.907Z,15
2018-06-28T06:42:08.204Z,15
2018-06-28T06:43:08.488Z,15
2018-06-28T06:44:08.508Z,15
2018-06-28T06:45:08.270Z,15
2018-06-28T06:46:08.825Z,15
2018-06-28T06:47:08.853Z,15
2018-06-28T06:48:08.621Z,15
2018-06-28T06:49:08.348Z,15
2018-06-28T06:50:08.657Z,15
2018-06-28T06:51:08.664Z,15
2018-06-28T06:52:08.519Z,15
2018-06-28T06:53:08.710Z,15
2018-06-28T06:54:08.734Z,15
2018-06-28T06:55:09.020Z,15
2018-06-28T06:56:08.506Z,15
2018-06-28T06:57:08.877Z,15
2018-06-28T06:58:09.107Z,15
2018-06-28T06:59:08.573Z,15
2018-06-28T07:00:08.867Z,15
2018-06-28T07:01:08.762Z,15
2018-06-28T07:02:09.037Z,15
2018-06-28T07:03:08.671Z,15
2018-06-28T07:04:09.282Z,15
2018-06-28T07:05:08.728Z,15
2018-06-28T07:06:08.781Z,15
2018-06-28T07:07:08.760Z,15
2018-06-28T07:08:08.772Z,15
2018-06-28T07:09:09.052Z,15
2018-06-28T07:10:09.142Z,15
2018-06-28T07:11:08.848Z,15
2018-06-28T07:12:09.417Z,15
2018-06-28T07:13:09.156Z,15
2018-06-28T07:14:08.642Z,15
2018-06-28T07:15:09.196Z,15
2018-06-28T07:16:09.732Z,15
2018-06-28T07:17:08.749Z,10
2018-06-28T07:18:09.304Z,10
2018-06-28T07:19:09.018Z,15
2018-06-28T07:20:09.308Z,15
2018-06-28T07:21:09.081Z,15
2018-06-28T07:22:09.379Z,15
2018-06-28T07:23:09.266Z,10
2018-06-28T07:24:08.881Z,10
2018-06-28T07:25:09.170Z,10
2018-06-28T07:26:09.466Z,10
2018-06-28T07:27:09.359Z,10
2018-06-28T07:28:09.219Z,15
2018-06-28T07:29:09.516Z,15
2018-06-28T07:30:09.533Z,15
2018-06-28T07:31:09.816Z,15
2018-06-28T07:32:09.057Z,15
2018-06-28T07:33:09.856Z,15
2018-06-28T07:34:09.605Z,15
2018-06-28T07:35:09.636Z,15
2018-06-28T07:36:09.666Z,15
2018-06-28T07:37:09.775Z,15
2018-06-28T07:38:09.186Z,15
2018-06-28T07:39:10.190Z,15
2018-06-28T07:40:09.510Z,15
2018-06-28T07:41:09.517Z,15
2018-06-28T07:42:09.596Z,15
2018-06-28T07:43:09.283Z,15
2018-06-28T07:44:09.838Z,15
2018-06-28T07:45:09.613Z,15
2018-06-28T07:46:09.930Z,15
2018-06-28T07:47:09.913Z,15
2018-06-28T07:48:09.793Z,15
2018-06-28T07:49:09.884Z,15
2018-06-28T07:50:10.265Z,15
2018-06-28T07:51:10.015Z,15
2018-06-28T07:52:09.767Z,15
2018-06-28T07:53:09.795Z,15
2018-06-28T07:54:10.089Z,15
2018-06-28T07:55:10.111Z,15
2018-06-28T07:56:09.859Z,15
2018-06-28T07:57:09.599Z,15
2018-06-28T07:58:09.935Z,15
2018-06-28T07:59:09.916Z,15
2018-06-28T08:00:09.986Z,15
2018-06-28T08:01:10.500Z,15
2018-06-28T08:02:10.281Z,15
2018-06-28T08:03:10.552Z,15
2018-06-28T08:04:10.304Z,15
2018-06-28T08:05:10.338Z,15
2018-06-28T08:06:09.559Z,20
2018-06-28T08:07:10.369Z,20
2018-06-28T08:08:10.665Z,20
2018-06-28T08:09:10.145Z,20
2018-06-28T08:10:09.918Z,25
2018-06-28T08:11:10.200Z,30
2018-06-28T08:12:10.218Z,20
2018-06-28T08:13:10.878Z,20
2018-06-28T08:14:10.285Z,20
2018-06-28T08:15:10.840Z,20
2018-06-28T08:16:10.324Z,20
2018-06-28T08:17:10.870Z,20
2018-06-28T08:18:10.889Z,20
2018-06-28T08:19:10.653Z,35
2018-06-28T08:20:10.939Z,30
2018-06-28T08:21:10.428Z,25
2018-06-28T08:22:10.741Z,25
2018-06-28T08:23:10.214Z,25
2018-06-28T08:24:10.772Z,25
2018-06-28T08:25:10.790Z,35
2018-06-28T08:26:10.816Z,40
2018-06-28T08:27:10.986Z,25
2018-06-28T08:28:11.244Z,20
2018-06-28T08:29:10.891Z,20
2018-06-28T08:30:11.184Z,35
2018-06-28T08:31:10.667Z,20
2018-06-28T08:32:10.692Z,20
2018-06-28T08:33:10.458Z,20
2018-06-28T08:34:10.749Z,20
2018-06-28T08:35:11.298Z,15
2018-06-28T08:36:11.515Z,15
2018-06-28T08:37:11.346Z,20
2018-06-28T08:38:11.374Z,20
2018-06-28T08:39:10.621Z,20
2018-06-28T08:40:11.166Z,25
2018-06-28T08:41:11.195Z,20
2018-06-28T08:42:11.203Z,25
2018-06-28T08:43:10.974Z,20
2018-06-28T08:44:10.973Z,20
2018-06-28T08:45:10.734Z,20
2018-06-28T08:46:11.307Z,20
2018-06-28T08:47:11.320Z,25
2018-06-28T08:48:10.808Z,20
2018-06-28T08:49:11.639Z,20
2018-06-28T08:50:11.672Z,20
2018-06-28T08:51:10.799Z,20
2018-06-28T08:52:11.183Z,20
2018-06-28T08:53:11.466Z,15
2018-06-28T08:54:11.243Z,20
2018-06-28T08:55:11.790Z,25
2018-06-28T08:56:11.276Z,20
2018-06-28T08:57:11.588Z,20
2018-06-28T08:58:11.477Z,20
2018-06-28T08:59:11.894Z,20
2018-06-28T09:00:11.162Z,20
2018-06-28T09:01:11.398Z,20
2018-06-28T09:02:11.442Z,25
2018-06-28T09:03:11.717Z,25
2018-06-28T09:04:12.019Z,20
2018-06-28T09:05:11.764Z,25
2018-06-28T09:06:10.991Z,30
2018-06-28T09:07:12.095Z,25
2018-06-28T09:08:11.452Z,25
2018-06-28T09:09:11.602Z,35
2018-06-28T09:10:11.898Z,25
2018-06-28T09:11:11.405Z,25
2018-06-28T09:12:11.688Z,25
2018-06-28T09:13:12.130Z,25
2018-06-28T09:14:12.276Z,30
2018-06-28T09:15:11.779Z,35
2018-06-28T09:16:11.788Z,30
2018-06-28T09:17:12.097Z,25
2018-06-28T09:18:11.498Z,30
2018-06-28T09:19:12.775Z,25
2018-06-28T09:20:11.799Z,30
2018-06-28T09:21:11.908Z,30
2018-06-28T09:22:11.936Z,25
2018-06-28T09:23:13.107Z,25
2018-06-28T09:24:12.253Z,30
2018-06-28T09:25:12.554Z,30
2018-06-28T09:26:11.773Z,45
2018-06-28T09:27:12.340Z,40
2018-06-28T09:28:12.091Z,30
2018-06-28T09:29:12.646Z,30
2018-06-28T09:30:11.878Z,25
2018-06-28T09:31:12.442Z,25
2018-06-28T09:32:12.201Z,30
2018-06-28T09:33:12.231Z,30
2018-06-28T09:34:12.522Z,25
2018-06-28T09:35:12.276Z,30
2018-06-28T09:36:12.309Z,35
2018-06-28T09:37:12.865Z,30
2018-06-28T09:38:12.651Z,30
2018-06-28T09:39:12.965Z,25
2018-06-28T09:40:12.964Z,35
2018-06-28T09:41:12.703Z,35
2018-06-28T09:42:12.738Z,30
2018-06-28T09:43:12.815Z,50
2018-06-28T09:44:12.802Z,55
2018-06-28T09:45:13.092Z,50
2018-06-28T09:46:12.842Z,45
2018-06-28T09:47:12.858Z,45
2018-06-28T09:48:13.157Z,40
2018-06-28T09:49:12.385Z,40
2018-06-28T09:50:12.935Z,45
2018-06-28T09:51:12.701Z,45
2018-06-28T09:52:12.996Z,40
2018-06-28T09:53:12.756Z,40
2018-06-28T09:54:12.792Z,30
2018-06-28T09:55:13.341Z,40
2018-06-28T09:56:13.109Z,40
2018-06-28T09:57:13.412Z,40
2018-06-28T09:58:13.429Z,50
2018-06-28T09:59:13.184Z,60
2018-06-28T10:00:13.659Z,50
2018-06-28T10:01:13.553Z,60
2018-06-28T10:02:13.019Z,60
2018-06-28T10:03:13.564Z,50
2018-06-28T10:04:13.594Z,40
2018-06-28T10:05:13.616Z,35
2018-06-28T10:06:13.109Z,35
2018-06-28T10:07:13.406Z,35
2018-06-28T10:08:13.456Z,30
2018-06-28T10:09:13.474Z,45
2018-06-28T10:10:13.492Z,45
2018-06-28T10:11:13.516Z,45
2018-06-28T10:12:13.817Z,40
2018-06-28T10:13:13.690Z,40
2018-06-28T10:14:13.921Z,40
2018-06-28T10:15:13.623Z,50
2018-06-28T10:16:13.675Z,45
2018-06-28T10:17:13.965Z,35
2018-06-28T10:18:13.897Z,45
2018-06-28T10:19:13.753Z,50
2018-06-28T10:20:13.506Z,50
2018-06-28T10:21:14.065Z,35
2018-06-28T10:22:13.823Z,40
2018-06-28T10:23:13.864Z,45
2018-06-28T10:24:14.160Z,45
2018-06-28T10:25:14.688Z,55
2018-06-28T10:26:14.209Z,55
2018-06-28T10:27:13.699Z,55
2018-06-28T10:28:13.747Z,40
2018-06-28T10:29:13.489Z,50
2018-06-28T10:30:14.329Z,45
2018-06-28T10:31:14.353Z,50
2018-06-28T10:32:14.117Z,35
2018-06-28T10:33:14.426Z,50
2018-06-28T10:34:13.898Z,55
2018-06-28T10:35:14.466Z,65
2018-06-28T10:36:13.958Z,60
2018-06-28T10:37:14.523Z,45
2018-06-28T10:38:14.547Z,45
2018-06-28T10:39:14.656Z,50
2018-06-28T10:40:14.616Z,45
2018-06-28T10:41:14.097Z,65
2018-06-28T10:42:14.395Z,70
2018-06-28T10:43:14.427Z,45
2018-06-28T10:44:14.186Z,35
2018-06-28T10:45:14.483Z,40
2018-06-28T10:46:14.514Z,60
2018-06-28T10:47:14.544Z,65
2018-06-28T10:48:14.304Z,60
2018-06-28T10:49:14.935Z,70
2018-06-28T10:50:14.903Z,55
2018-06-28T10:51:14.398Z,55
2018-06-28T10:52:14.163Z,50
2018-06-28T10:53:14.729Z,35
2018-06-28T10:54:14.952Z,25
2018-06-28T10:55:15.042Z,30
2018-06-28T10:56:14.549Z,55
2018-06-28T10:57:15.105Z,55
2018-06-28T10:58:15.129Z,35
2018-06-28T10:59:15.159Z,35
2018-06-28T11:00:14.935Z,30
2018-06-28T11:01:14.687Z,50
2018-06-28T11:02:14.716Z,55
2018-06-28T11:03:14.750Z,50
2018-06-28T11:04:15.315Z,55
2018-06-28T11:05:15.346Z,60
2018-06-28T11:06:14.599Z,55
2018-06-28T11:07:15.401Z,60
2018-06-28T11:08:15.226Z,50
2018-06-28T11:09:15.025Z,50
2018-06-28T11:10:15.259Z,45
2018-06-28T11:11:15.256Z,50
2018-06-28T11:12:15.547Z,35
2018-06-28T11:13:15.320Z,30
2018-06-28T11:14:15.613Z,25
2018-06-28T11:15:15.373Z,30
2018-06-28T11:16:15.675Z,35
2018-06-28T11:17:15.161Z,40
2018-06-28T11:18:15.728Z,70
2018-06-28T11:19:15.496Z,60
2018-06-28T11:20:15.276Z,65
2018-06-28T11:21:15.558Z,45
2018-06-28T11:22:15.855Z,35
2018-06-28T11:23:15.629Z,40
2018-06-28T11:24:15.916Z,35
2018-06-28T11:25:15.486Z,45
2018-06-28T11:26:15.756Z,65
2018-06-28T11:27:15.476Z,60
2018-06-28T11:28:15.510Z,40
2018-06-28T11:29:16.268Z,65
2018-06-28T11:30:15.833Z,65
2018-06-28T11:31:15.606Z,60
2018-06-28T11:32:15.887Z,50
2018-06-28T11:33:16.180Z,40
2018-06-28T11:34:16.235Z,50
2018-06-28T11:35:16.294Z,45
2018-06-28T11:36:15.780Z,70
2018-06-28T11:37:16.039Z,75
2018-06-28T11:38:16.085Z,65
2018-06-28T11:39:15.833Z,65
2018-06-28T11:40:16.161Z,80
2018-06-28T11:41:16.172Z,75
2018-06-28T11:42:16.466Z,70
2018-06-28T11:43:16.222Z,70
2018-06-28T11:44:16.254Z,85
2018-06-28T11:45:16.559Z,85
2018-06-28T11:46:16.326Z,50
2018-06-28T11:47:16.353Z,80
2018-06-28T11:48:16.381Z,45
2018-06-28T11:49:16.681Z,85
2018-06-28T11:50:16.750Z,55
2018-06-28T11:51:16.469Z,90
2018-06-28T11:52:16.128Z,40
2018-06-28T11:53:16.529Z,35
2018-06-28T11:54:16.828Z,40
2018-06-28T11:55:16.863Z,45
2018-06-28T11:56:17.057Z,55
2018-06-28T11:57:16.655Z,60
2018-06-28T11:58:16.685Z,65
2018-06-28T11:59:16.989Z,50
2018-06-28T12:00:16.749Z,75
2018-06-28T12:01:17.056Z,80
2018-06-28T12:02:16.819Z,85
2018-06-28T12:03:17.112Z,85
2018-06-28T12:04:16.881Z,70
2018-06-28T12:05:17.033Z,30
2018-06-28T12:06:17.208Z,30
2018-06-28T12:07:17.231Z,25
2018-06-28T12:08:17.266Z,25
2018-06-28T12:09:17.305Z,30
2018-06-28T12:10:17.124Z,25
2018-06-28T12:11:17.110Z,15
2018-06-28T12:12:17.127Z,15
2018-06-28T12:13:16.900Z,20
2018-06-28T12:14:17.454Z,30
2018-06-28T12:15:16.719Z,35
2018-06-28T12:16:17.250Z,45
2018-06-28T12:17:17.571Z,60
2018-06-28T12:18:17.318Z,60
2018-06-28T12:19:17.075Z,80
2018-06-28T12:20:17.111Z,65
2018-06-28T12:21:17.668Z,50
2018-06-28T12:22:17.451Z,45
2018-06-28T12:23:17.743Z,20
2018-06-28T12:24:17.507Z,20
2018-06-28T12:25:17.795Z,25
2018-06-28T12:26:17.559Z,35
2018-06-28T12:27:17.596Z,50
2018-06-28T12:28:17.893Z,65
2018-06-28T12:29:17.930Z,85
2018-06-28T12:30:17.421Z,105
2018-06-28T12:31:17.908Z,100
2018-06-28T12:32:17.759Z,90
2018-06-28T12:33:17.820Z,90
2018-06-28T12:34:17.992Z,90
2018-06-28T12:35:17.849Z,90
2018-06-28T12:36:18.154Z,85
2018-06-28T12:37:18.179Z,75
2018-06-28T12:38:17.407Z,40
2018-06-28T12:39:18.103Z,55
2018-06-28T12:40:17.734Z,75
2018-06-28T12:41:18.046Z,80
2018-06-28T12:42:18.069Z,75
2018-06-28T12:43:18.100Z,70
2018-06-28T12:44:18.150Z,100
2018-06-28T12:45:18.175Z,80
2018-06-28T12:46:18.698Z,105
2018-06-28T12:47:18.506Z,110
2018-06-28T12:48:18.535Z,105
2018-06-28T12:49:18.085Z,110
2018-06-28T12:50:18.591Z,125
2018-06-28T12:51:18.091Z,125
2018-06-28T12:52:18.660Z,105
2018-06-28T12:53:18.421Z,110
2018-06-28T12:54:19.017Z,85
2018-06-28T12:55:18.488Z,65
2018-06-28T12:56:18.515Z,80
2018-06-28T12:57:18.818Z,90
2018-06-28T12:58:18.587Z,100
2018-06-28T12:59:18.081Z,100
2018-06-28T13:00:18.671Z,85
2018-06-28T13:01:18.411Z,85
2018-06-28T13:02:18.720Z,90
2018-06-28T13:03:19.023Z,95
2018-06-28T13:04:18.787Z,95
2018-06-28T13:05:19.074Z,125
2018-06-28T13:06:18.848Z,100
2018-06-28T13:07:18.691Z,105
2018-06-28T13:08:19.181Z,110
2018-06-28T13:09:19.215Z,100
2018-06-28T13:10:18.976Z,95
2018-06-28T13:11:18.734Z,90
2018-06-28T13:12:19.081Z,85
2018-06-28T13:13:19.340Z,80
2018-06-28T13:14:19.102Z,80
2018-06-28T13:15:19.423Z,80
2018-06-28T13:16:19.435Z,75
2018-06-28T13:17:19.194Z,65
2018-06-28T13:18:19.228Z,50
2018-06-28T13:19:19.269Z,40
2018-06-28T13:20:20.151Z,30
2018-06-28T13:21:19.326Z,30
2018-06-28T13:22:19.098Z,30
2018-06-28T13:23:19.406Z,25
2018-06-28T13:24:19.694Z,20
2018-06-28T13:25:19.466Z,15
2018-06-28T13:26:19.502Z,10
2018-06-28T13:27:19.797Z,10
2018-06-28T13:28:19.557Z,10
2018-06-28T13:29:19.860Z,10
2018-06-28T13:30:19.887Z,10
2018-06-28T13:31:19.926Z,10
2018-06-28T13:32:19.976Z,5
2018-06-28T13:33:19.717Z,5
2018-06-28T13:34:19.758Z,10
2018-06-28T13:35:20.047Z,10
2018-06-28T13:36:19.823Z,15
2018-06-28T13:37:20.122Z,15
2018-06-28T13:38:19.882Z,15
2018-06-28T13:39:20.266Z,15
2018-06-28T13:40:19.960Z,15
2018-06-28T13:41:21.481Z,15
2018-06-28T13:42:20.567Z,15
2018-06-28T13:43:19.777Z,15
2018-06-28T13:44:20.343Z,15
2018-06-28T13:45:20.386Z,10
2018-06-28T13:46:20.779Z,10
2018-06-28T13:47:20.167Z,10
2018-06-28T13:48:20.468Z,10
2018-06-28T13:49:20.911Z,15
2018-06-28T13:50:20.014Z,15
2018-06-28T13:51:20.563Z,20
2018-06-28T13:52:20.328Z,20
2018-06-28T13:53:20.095Z,25
2018-06-28T13:54:20.401Z,25
2018-06-28T13:55:20.425Z,30
2018-06-28T13:56:20.745Z,40
2018-06-28T13:57:20.756Z,40
2018-06-28T13:58:20.800Z,35
2018-06-28T13:59:20.279Z,25
2018-06-28T14:00:20.318Z,15
2018-06-28T14:01:20.878Z,10
2018-06-28T14:02:20.926Z,5
2018-06-28T14:03:20.785Z,5
2018-06-28T14:04:20.977Z,5
2018-06-28T14:05:21.016Z,0
2018-06-28T14:06:20.795Z,0
2018-06-28T14:07:21.161Z,0
2018-06-28T14:08:20.254Z,5
2018-06-28T14:09:21.315Z,0
2018-06-28T14:10:21.161Z,0
2018-06-28T14:11:20.930Z,0
2018-06-28T14:12:21.227Z,0
2018-06-28T14:13:20.994Z,0
2018-06-28T14:14:21.395Z,0
2018-06-28T14:15:21.334Z,0
2018-06-28T14:16:20.844Z,0
2018-06-28T14:17:21.401Z,0
2018-06-28T14:18:21.418Z,0
2018-06-28T14:19:21.494Z,0
2018-06-28T14:20:21.224Z,5
2018-06-28T14:21:21.249Z,5
2018-06-28T14:22:22.049Z,5
2018-06-28T14:23:21.566Z,5
2018-06-28T14:24:21.356Z,5
2018-06-28T14:25:21.105Z,5
2018-06-28T14:26:21.668Z,5
2018-06-28T14:27:21.160Z,5